Weather at Barcelona International Airport

Public forecast

Using degrees Celsius for public forecast. Weather courtesy of forecast.io.

Current aviation weather report (METAR) for Barcelona International Airport

Retrieved 2021/07/29 05:30 UTC (10 minutes ago):

LEBL 290530Z 32007KT 9999 FEW030 22/18 Q1015 NOSIG

Aviation forecast (TAF) for Barcelona International Airport

Retrieved 2021-07-29 00:27 UTC (5 hours ago):

TAF LEBL 282300Z 2900/2924 34004KT 9999 SCT020 TX29/2914Z TN22/2906Z BECMG 2908/2910 18010KT